Chenku, Mexico

6:44 PM CDT on June 24, 2017 (GMT -0500)
Chuburna Merida Yuc | | Change Station

Elev 26 ft 21.02 °N, 89.64 °W | Updated 4 minutes ago

Light Thunderstorms and Rain
Light Thunderstorm Rain
75.3 °F
Feels Like 73 °F
N
2.0
Wind Variable Wind from ENE
Gusts 3.0 mph

Today
High -- | Low -- °F
--% Chance of Precip.
Yesterday
High -- | Low -- °F
Precip. -- in
Pressure 29.93 in
Visibility 6.0 miles
Clouds Scattered Clouds 2500 ft
Mostly Cloudy 7000 ft
Overcast 30000 ft
Heat Index 73 °F
Dew Point 74 °F
Humidity 97%
Rainfall 1.91 in
Snow Depth Not available.
6:18 AM 7:43 PM
New Moon, 1% visible
METAR MMMD 242308Z 34004KT 6SM -TSRA SCT025CB BKN070 OVC300 24/23 A2993 RMK 8/963 TSB05 LGTCG
Pressure 29.93 in
Visibility 6.0 miles
Clouds Scattered Clouds 2500 ft
Mostly Cloudy 7000 ft
Overcast 30000 ft
Heat Index 73 °F
Dew Point 74 °F
Humidity 97%
Rainfall 1.91 in
Snow Depth Not available.
6:18 AM 7:43 PM
New Moon, 1% visible
METAR MMMD 242308Z 34004KT 6SM -TSRA SCT025CB BKN070 OVC300 24/23 A2993 RMK 8/963 TSB05 LGTCG

Get Severe Weather Alerts

Thanks for signing up!

Be on the lookout for a verification email in your inbox.

You'll start receiving the daily forecast at 6 AM.

×

10-Day Weather Forecast

No radar image for this location.
×

Almanac

Astronomy

Jun. 24, 2017 Rise Set
Actual Time
Civil Twilight
Nautical Twilight
Astronomical Twilight
Moon
Length of Visible Light
Length of Day
Tomorrow will be .
, % of the Moon is Illuminated

Today's Extremes

Country Highs Country Lows

Community

WunderPhotos

Category 6

Welcome to Category 6. This is the collective home for Weather Underground's featured writeups by Dr. Jeff Masters (right), Bob Henson (left), Chris Burt, and other regular contributors.

Nearby

Air Quality

  Air Quality AQ Index Pollutant
Not available.

Snow Depth

Station Depth Elevation

Earthquake Activity

City Distance Mag. Time & Date
Minimum magnitude displayed is 2.5.

Coastal Water Temperatures

Place Temperature

Stations

Nearby Weather Stations

Station Location Temp. Windchill Dew Point Humidity Wind Precip. Elev Updated Type